Time;durP1;ratioP1;P1;durP2;ratioP2;P2;SDS_P1;SDS_P2;PMS_P1;PMS_P2;Temp;Humidity;BMP_temperature;BMP_pressure;BME280_temperature;BME280_humidity;BME280_pressure;Samples;Min_cycle;Max_cycle;Signal;HPM_P1;HPM_P2
2022/01/12 00:01:22;;;;;;;7.15;3.55;;;;;;;;;;5030635;28;20112;-63
2022/01/12 00:03:48;;;;;;;9.23;4.05;;;;;;;;;;5035428;28;20033;-63
2022/01/12 00:06:14;;;;;;;6.82;3.45;;;;;;;;;;5036237;28;20449;-63
2022/01/12 00:08:40;;;;;;;8.90;3.17;;;;;;;;;;5034491;28;20026;-63
2022/01/12 00:11:07;;;;;;;5.53;2.90;;;;;;;;;;5034560;28;20048;-64
2022/01/12 00:13:34;;;;;;;8.65;4.03;;;;;;;;;;5033596;28;20076;-63
2022/01/12 00:16:01;;;;;;;8.18;4.00;;;;;;;;;;5032954;28;20189;-63
2022/01/12 00:18:28;;;;;;;7.63;3.53;;;;;;;;;;5037447;28;20029;-63
2022/01/12 00:20:54;;;;;;;5.63;2.88;;;;;;;;;;5027380;28;20033;-63
2022/01/12 00:23:21;;;;;;;6.68;3.28;;;;;;;;;;5039382;28;20032;-63
2022/01/12 00:34:04;;;;;;;6.47;3.28;;;;;;;;;;5031933;28;20113;-63
2022/01/12 00:36:30;;;;;;;4.97;2.65;;;;;;;;;;5037640;28;20046;-64
2022/01/12 00:38:57;;;;;;;5.28;2.72;;;;;;;;;;5039833;28;20036;-63
2022/01/12 00:41:23;;;;;;;5.07;2.47;;;;;;;;;;5039769;28;20401;-63
2022/01/12 00:43:56;;;;;;;5.47;1.90;;;;;;;;;;5034994;28;20393;-63
2022/01/12 00:46:23;;;;;;;4.57;2.40;;;;;;;;;;5031674;28;20079;-63
2022/01/12 00:48:48;;;;;;;3.63;1.75;;;;;;;;;;5050905;28;20083;-63
2022/01/12 00:51:15;;;;;;;6.32;2.40;;;;;;;;;;5037457;28;20512;-63
2022/01/12 00:53:41;;;;;;;4.47;2.60;;;;;;;;;;5034341;28;20155;-63
2022/01/12 00:56:07;;;;;;;4.60;2.08;;;;;;;;;;5034656;28;20485;-63
2022/01/12 00:58:34;;;;;;;4.90;2.33;;;;;;;;;;5031779;28;20032;-63
2022/01/12 01:01:00;;;;;;;3.85;1.63;;;;;;;;;;5046227;28;20044;-63
2022/01/12 01:03:28;;;;;;;7.55;2.22;;;;;;;;;;5035934;28;20029;-63
2022/01/12 01:05:55;;;;;;;5.85;2.72;;;;;;;;;;5033827;28;20140;-63
2022/01/12 01:08:21;;;;;;;5.50;2.05;;;;;;;;;;5035817;28;20093;-63
2022/01/12 01:10:48;;;;;;;4.47;2.13;;;;;;;;;;5039067;28;20029;-64
2022/01/12 01:13:28;;;;;;;4.18;1.63;;;;;;;;;;5030412;28;20362;-63
2022/01/12 01:16:02;;;;;;;6.93;2.10;;;;;;;;;;5034170;28;20033;-63
2022/01/12 01:26:44;;;;;;;2.80;1.52;;;;;;;;;;5034330;28;20052;-63
2022/01/12 01:29:10;;;;;;;3.83;2.42;;;;;;;;;;5034845;28;20029;-63
2022/01/12 01:31:37;;;;;;;8.27;3.30;;;;;;;;;;5045005;28;20069;-63
2022/01/12 01:34:11;;;;;;;7.45;3.15;;;;;;;;;;5030643;28;20021;-63
2022/01/12 01:36:48;;;;;;;5.05;2.25;;;;;;;;;;5044483;28;20064;-63
2022/01/12 01:39:16;;;;;;;4.72;2.30;;;;;;;;;;5038130;28;20032;-61
2022/01/12 01:41:45;;;;;;;5.07;2.28;;;;;;;;;;5036757;28;20476;-64
2022/01/12 01:54:52;;;;;;;6.28;2.97;;;;;;;;;;5045213;28;20682;-63
2022/01/12 01:57:18;;;;;;;3.38;1.92;;;;;;;;;;5033849;28;20029;-63
2022/01/12 01:59:45;;;;;;;3.45;1.63;;;;;;;;;;5037795;28;20029;-64
2022/01/12 02:02:11;;;;;;;5.85;2.00;;;;;;;;;;5040074;28;20487;-63
2022/01/12 02:04:37;;;;;;;4.55;2.20;;;;;;;;;;5032783;28;20033;-63
2022/01/12 02:07:03;;;;;;;5.65;2.45;;;;;;;;;;5030893;28;20501;-63
2022/01/12 02:09:29;;;;;;;5.00;2.78;;;;;;;;;;5039737;28;20100;-62
2022/01/12 02:11:55;;;;;;;7.07;2.80;;;;;;;;;;5033995;28;20073;-63
2022/01/12 02:14:22;;;;;;;6.43;2.88;;;;;;;;;;5035709;28;20077;-61
2022/01/12 02:16:59;;;;;;;5.03;2.40;;;;;;;;;;5032433;28;20033;-61
2022/01/12 02:36:08;;;;;;;4.18;2.08;;;;;;;;;;5031781;28;20068;-64
2022/01/12 02:41:18;;;;;;;4.95;2.13;;;;;;;;;;5038181;28;20068;-63
2022/01/12 02:54:46;;;;;;;4.72;1.60;;;;;;;;;;5043090;28;20484;-63
2022/01/12 02:57:12;;;;;;;2.40;1.38;;;;;;;;;;5033719;28;20491;-63
2022/01/12 02:59:47;;;;;;;3.80;1.77;;;;;;;;;;5037468;28;20025;-63
2022/01/12 03:02:31;;;;;;;3.70;1.50;;;;;;;;;;5039524;28;20024;-62
2022/01/12 03:05:46;;;;;;;1.73;0.98;;;;;;;;;;5031753;28;20064;-63
2022/01/12 03:07:48;;;;;;;3.63;2.00;;;;;;;;;;5032047;28;20021;-63
2022/01/12 03:10:14;;;;;;;3.63;1.88;;;;;;;;;;5032672;28;20042;-63
2022/01/12 03:12:41;;;;;;;2.75;1.50;;;;;;;;;;5035266;28;20033;-63
2022/01/12 03:15:07;;;;;;;3.55;1.40;;;;;;;;;;5033583;28;20026;-62
2022/01/12 03:17:34;;;;;;;3.00;1.52;;;;;;;;;;5031819;28;20492;-62
2022/01/12 03:20:00;;;;;;;4.30;2.00;;;;;;;;;;5034825;28;20017;-63
2022/01/12 03:22:26;;;;;;;4.38;1.52;;;;;;;;;;5029547;28;20030;-63
2022/01/12 03:24:52;;;;;;;2.55;1.40;;;;;;;;;;5031078;28;20396;-62
2022/01/12 03:27:18;;;;;;;4.55;1.80;;;;;;;;;;5032815;28;20117;-63
2022/01/12 03:29:49;;;;;;;3.55;1.63;;;;;;;;;;5037704;28;20430;-63
2022/01/12 03:32:19;;;;;;;2.40;1.27;;;;;;;;;;5038835;28;20075;-62
2022/01/12 03:34:53;;;;;;;3.63;1.60;;;;;;;;;;5031771;28;20032;-62
2022/01/12 03:40:04;;;;;;;3.65;1.58;;;;;;;;;;5034779;28;20045;-63
2022/01/12 03:42:31;;;;;;;4.03;1.63;;;;;;;;;;5034779;28;20397;-63
2022/01/12 03:44:57;;;;;;;2.35;1.25;;;;;;;;;;5031800;28;20032;-63
2022/01/12 03:47:23;;;;;;;3.20;1.38;;;;;;;;;;5031159;28;20033;-63
2022/01/12 03:49:49;;;;;;;4.13;1.67;;;;;;;;;;5033178;28;20029;-63
2022/01/12 03:52:14;;;;;;;5.50;1.90;;;;;;;;;;5027878;28;20120;-63
2022/01/12 03:54:40;;;;;;;4.00;1.77;;;;;;;;;;5034540;28;20025;-63
2022/01/12 03:57:06;;;;;;;2.38;1.27;;;;;;;;;;5031087;28;20033;-63
2022/01/12 03:59:32;;;;;;;4.15;1.65;;;;;;;;;;5034827;28;20020;-63
2022/01/12 04:01:59;;;;;;;4.72;1.60;;;;;;;;;;5040470;28;20036;-63
2022/01/12 04:04:33;;;;;;;3.47;1.40;;;;;;;;;;5028811;28;20026;-63
2022/01/12 04:09:44;;;;;;;1.50;0.98;;;;;;;;;;5042990;28;20039;-63
2022/01/12 04:12:10;;;;;;;2.33;1.20;;;;;;;;;;5031575;28;20542;-63
2022/01/12 04:14:36;;;;;;;4.00;1.92;;;;;;;;;;5030151;28;20030;-63
2022/01/12 04:17:02;;;;;;;3.53;2.05;;;;;;;;;;5031469;28;20029;-63
2022/01/12 04:19:28;;;;;;;3.42;2.00;;;;;;;;;;5043296;28;20025;-63
2022/01/12 04:21:54;;;;;;;2.72;1.50;;;;;;;;;;5030214;28;20099;-63
2022/01/12 04:24:20;;;;;;;3.10;1.52;;;;;;;;;;5036153;28;20065;-63
2022/01/12 04:26:47;;;;;;;3.40;1.67;;;;;;;;;;5039233;28;20461;-62
2022/01/12 04:29:13;;;;;;;3.30;1.60;;;;;;;;;;5040759;28;20488;-63
2022/01/12 04:31:39;;;;;;;5.70;1.67;;;;;;;;;;5033017;28;20401;-63
2022/01/12 04:34:06;;;;;;;2.58;1.60;;;;;;;;;;5032290;28;20049;-63
2022/01/12 04:36:32;;;;;;;2.53;1.40;;;;;;;;;;5035892;28;20099;-62
2022/01/12 04:38:58;;;;;;;2.92;1.40;;;;;;;;;;5033107;28;20026;-63
2022/01/12 04:41:25;;;;;;;3.03;1.23;;;;;;;;;;5033778;28;20032;-63
2022/01/12 04:43:52;;;;;;;5.40;1.70;;;;;;;;;;5032020;28;20026;-63
2022/01/12 04:46:25;;;;;;;2.22;1.45;;;;;;;;;;5032344;28;20036;-63
2022/01/12 04:48:56;;;;;;;1.50;1.10;;;;;;;;;;5032807;28;20029;-64
2022/01/12 04:51:23;;;;;;;1.83;1.13;;;;;;;;;;5037903;28;20107;-63
2022/01/12 04:53:49;;;;;;;3.80;1.58;;;;;;;;;;5034704;28;20091;-64
2022/01/12 04:56:15;;;;;;;2.90;1.75;;;;;;;;;;5034149;28;20041;-62
2022/01/12 04:58:41;;;;;;;3.20;1.40;;;;;;;;;;5044814;28;20177;-63
2022/01/12 05:01:11;;;;;;;2.42;1.40;;;;;;;;;;5044409;28;20505;-63
2022/01/12 05:14:16;;;;;;;3.13;1.40;;;;;;;;;;5033904;28;20029;-63
2022/01/12 05:16:42;;;;;;;1.80;1.10;;;;;;;;;;5033827;28;20031;-63
2022/01/12 05:19:08;;;;;;;1.52;0.70;;;;;;;;;;5047546;28;20097;-63
2022/01/12 05:21:34;;;;;;;2.25;1.20;;;;;;;;;;5048543;28;20041;-63
2022/01/12 05:24:04;;;;;;;1.38;0.93;;;;;;;;;;5034623;28;20029;-63
2022/01/12 05:26:30;;;;;;;3.30;1.38;;;;;;;;;;5035549;28;20026;-63
2022/01/12 05:28:56;;;;;;;5.63;1.20;;;;;;;;;;5044569;28;20029;-63
2022/01/12 05:31:23;;;;;;;3.85;1.60;;;;;;;;;;5045076;28;20481;-63
2022/01/12 05:33:49;;;;;;;1.33;1.02;;;;;;;;;;5044797;28;20641;-63
2022/01/12 05:36:19;;;;;;;2.00;1.10;;;;;;;;;;5045630;28;20060;-63
2022/01/12 05:38:45;;;;;;;2.15;1.00;;;;;;;;;;5036109;28;20465;-63
2022/01/12 05:41:12;;;;;;;1.45;0.90;;;;;;;;;;5042555;28;20033;-63
2022/01/12 05:43:39;;;;;;;1.52;0.70;;;;;;;;;;5044609;28;20017;-63
2022/01/12 05:46:12;;;;;;;3.50;1.27;;;;;;;;;;5030645;28;20034;-63
2022/01/12 05:51:23;;;;;;;3.20;1.73;;;;;;;;;;5050492;28;20071;-62
2022/01/12 05:53:49;;;;;;;3.67;1.40;;;;;;;;;;5042773;28;20112;-62
2022/01/12 05:56:15;;;;;;;3.67;1.38;;;;;;;;;;5040046;28;20036;-62
2022/01/12 05:58:41;;;;;;;2.25;1.27;;;;;;;;;;5038685;28;20021;-62
2022/01/12 06:01:07;;;;;;;1.25;0.98;;;;;;;;;;5037267;28;20125;-63
2022/01/12 06:03:33;;;;;;;2.70;1.38;;;;;;;;;;5036239;28;20026;-62
2022/01/12 06:05:59;;;;;;;3.88;1.80;;;;;;;;;;5041186;28;20029;-63
2022/01/12 06:08:25;;;;;;;1.77;1.10;;;;;;;;;;5038846;28;20088;-63
2022/01/12 06:10:51;;;;;;;3.08;1.38;;;;;;;;;;5037777;28;20055;-63
2022/01/12 06:13:17;;;;;;;2.33;1.38;;;;;;;;;;5029505;28;20030;-63
2022/01/12 06:15:43;;;;;;;2.15;1.25;;;;;;;;;;5045940;28;20029;-63
2022/01/12 06:18:09;;;;;;;3.10;1.40;;;;;;;;;;5033842;28;20037;-63
2022/01/12 06:20:35;;;;;;;3.38;1.65;;;;;;;;;;5044925;28;20093;-63
2022/01/12 06:23:01;;;;;;;3.05;1.42;;;;;;;;;;5041469;28;21011;-63
2022/01/12 06:25:27;;;;;;;2.20;1.38;;;;;;;;;;5038343;28;20030;-63
2022/01/12 06:28:09;;;;;;;2.63;1.40;;;;;;;;;;5032643;28;20075;-63
2022/01/12 06:33:20;;;;;;;2.92;1.52;;;;;;;;;;5037432;28;20049;-63
2022/01/12 06:35:46;;;;;;;2.40;1.20;;;;;;;;;;5043914;28;20013;-63
2022/01/12 06:38:12;;;;;;;2.83;1.30;;;;;;;;;;5041574;28;20394;-64
2022/01/12 06:40:38;;;;;;;2.13;1.33;;;;;;;;;;5043219;28;20167;-62
2022/01/12 06:43:04;;;;;;;3.60;1.73;;;;;;;;;;5026762;28;20540;-62
2022/01/12 06:45:30;;;;;;;3.40;1.42;;;;;;;;;;5038630;28;20033;-62
2022/01/12 06:47:56;;;;;;;3.10;1.65;;;;;;;;;;5025456;28;20025;-61
2022/01/12 06:50:22;;;;;;;4.22;1.67;;;;;;;;;;5018705;28;20474;-62
2022/01/12 06:52:48;;;;;;;3.13;1.67;;;;;;;;;;5015806;28;20056;-60
2022/01/12 06:55:15;;;;;;;2.85;1.50;;;;;;;;;;5016949;28;20033;-60
2022/01/12 06:57:41;;;;;;;6.40;1.30;;;;;;;;;;5026772;28;20203;-60
2022/01/12 07:00:07;;;;;;;2.58;1.20;;;;;;;;;;5025724;28;20116;-60
2022/01/12 07:02:33;;;;;;;3.30;1.42;;;;;;;;;;5021129;28;20022;-60
2022/01/12 07:04:59;;;;;;;2.80;1.30;;;;;;;;;;5020336;28;20040;-61
2022/01/12 07:07:25;;;;;;;2.88;1.10;;;;;;;;;;5027595;28;20026;-61
2022/01/12 07:09:51;;;;;;;2.63;1.20;;;;;;;;;;5024797;28;20354;-60
2022/01/12 07:12:17;;;;;;;2.13;1.25;;;;;;;;;;5016432;28;20030;-60
2022/01/12 07:14:43;;;;;;;3.22;1.45;;;;;;;;;;5025634;28;20036;-60
2022/01/12 07:17:10;;;;;;;3.45;1.35;;;;;;;;;;5033573;28;20041;-63
2022/01/12 07:19:36;;;;;;;2.75;1.30;;;;;;;;;;5033326;28;20369;-68
2022/01/12 07:22:02;;;;;;;2.88;1.70;;;;;;;;;;5012756;28;20051;-68
2022/01/12 07:24:28;;;;;;;4.93;1.90;;;;;;;;;;5016239;28;20022;-68
2022/01/12 07:26:54;;;;;;;2.03;1.10;;;;;;;;;;5033495;28;20087;-69
2022/01/12 07:29:20;;;;;;;5.10;1.27;;;;;;;;;;5033777;28;20452;-68
2022/01/12 07:31:48;;;;;;;1.83;1.30;;;;;;;;;;5042822;28;20427;-67
2022/01/12 07:34:14;;;;;;;2.03;1.13;;;;;;;;;;5027712;28;20461;-68
2022/01/12 07:36:41;;;;;;;7.53;2.30;;;;;;;;;;5050166;28;20053;-68
2022/01/12 07:39:07;;;;;;;4.18;1.70;;;;;;;;;;5043166;28;20087;-68
2022/01/12 07:41:33;;;;;;;4.40;1.90;;;;;;;;;;5036018;28;20026;-65
2022/01/12 07:43:59;;;;;;;3.92;1.70;;;;;;;;;;5039097;28;20036;-63
2022/01/12 07:46:25;;;;;;;2.53;1.30;;;;;;;;;;5042469;28;20072;-66
2022/01/12 07:48:51;;;;;;;5.00;1.92;;;;;;;;;;5031728;28;20614;-66
2022/01/12 07:51:17;;;;;;;5.72;2.13;;;;;;;;;;5032561;28;20404;-67
2022/01/12 07:53:43;;;;;;;7.30;2.10;;;;;;;;;;5039294;28;20025;-67
2022/01/12 07:56:09;;;;;;;4.05;1.98;;;;;;;;;;5039329;28;20050;-66
2022/01/12 07:58:35;;;;;;;4.47;1.58;;;;;;;;;;5042312;28;20103;-66
2022/01/12 08:01:01;;;;;;;2.15;1.25;;;;;;;;;;5047096;28;20030;-66
2022/01/12 08:03:27;;;;;;;7.10;1.90;;;;;;;;;;5049515;28;20487;-67
2022/01/12 08:05:53;;;;;;;4.10;1.40;;;;;;;;;;5046687;28;20033;-66
2022/01/12 08:08:19;;;;;;;3.53;1.65;;;;;;;;;;5041339;28;20029;-66
2022/01/12 08:10:45;;;;;;;1.80;1.20;;;;;;;;;;5039922;28;20033;-62
2022/01/12 08:13:11;;;;;;;3.45;1.83;;;;;;;;;;5042318;28;20037;-62
2022/01/12 08:15:37;;;;;;;4.60;1.70;;;;;;;;;;5046725;28;20025;-62
2022/01/12 08:18:03;;;;;;;4.20;2.03;;;;;;;;;;5035766;28;20033;-62
2022/01/12 08:20:30;;;;;;;4.22;1.80;;;;;;;;;;5043145;28;20033;-62
2022/01/12 08:22:56;;;;;;;3.30;1.65;;;;;;;;;;5034438;28;20029;-63
2022/01/12 08:25:22;;;;;;;3.42;1.77;;;;;;;;;;5031937;28;20034;-63
2022/01/12 08:27:48;;;;;;;6.18;2.50;;;;;;;;;;5044270;28;20029;-63
2022/01/12 08:30:19;;;;;;;2.95;1.65;;;;;;;;;;5045698;28;20408;-63
2022/01/12 08:32:49;;;;;;;4.40;2.17;;;;;;;;;;5037812;28;20057;-62
2022/01/12 08:35:16;;;;;;;4.10;2.10;;;;;;;;;;5039308;28;20021;-63
2022/01/12 08:37:42;;;;;;;4.85;2.20;;;;;;;;;;5045514;28;20048;-63
2022/01/12 08:40:08;;;;;;;5.07;2.10;;;;;;;;;;5036330;28;20079;-63
2022/01/12 08:42:34;;;;;;;6.57;1.88;;;;;;;;;;5047392;28;20029;-63
2022/01/12 08:45:02;;;;;;;4.63;2.20;;;;;;;;;;5044761;28;20036;-63
2022/01/12 08:47:28;;;;;;;6.68;2.05;;;;;;;;;;5039688;28;20465;-63
2022/01/12 08:49:54;;;;;;;3.95;1.88;;;;;;;;;;5041455;28;20504;-63
2022/01/12 08:52:22;;;;;;;4.13;2.00;;;;;;;;;;5031057;28;20394;-63
2022/01/12 08:54:48;;;;;;;;;;;;;;;;;;5036693;28;20013;-63
2022/01/12 08:57:14;;;;;;;3.92;2.10;;;;;;;;;;5035345;28;19995;-62
2022/01/12 08:59:40;;;;;;;4.78;2.03;;;;;;;;;;5041385;28;20032;-63
2022/01/12 09:02:07;;;;;;;3.60;2.05;;;;;;;;;;5044718;28;20056;-63
2022/01/12 09:04:33;;;;;;;4.20;1.80;;;;;;;;;;5046395;28;20059;-63
2022/01/12 09:06:59;;;;;;;2.55;1.52;;;;;;;;;;5048105;28;20180;-63
2022/01/12 09:09:26;;;;;;;5.20;2.22;;;;;;;;;;5035865;28;20057;-63
2022/01/12 09:11:53;;;;;;;3.28;1.73;;;;;;;;;;5037306;28;20056;-63
2022/01/12 09:14:19;;;;;;;3.55;1.67;;;;;;;;;;5040869;28;20398;-63
2022/01/12 09:16:50;;;;;;;3.70;1.75;;;;;;;;;;5034006;28;20037;-63
2022/01/12 09:19:16;;;;;;;3.65;1.77;;;;;;;;;;5037515;28;20561;-63
2022/01/12 09:21:42;;;;;;;3.25;1.73;;;;;;;;;;5043522;28;20025;-63
2022/01/12 09:24:08;;;;;;;4.35;2.08;;;;;;;;;;5040323;28;20029;-63
2022/01/12 09:26:34;;;;;;;3.53;1.80;;;;;;;;;;5038562;28;20026;-63
2022/01/12 09:29:02;;;;;;;3.90;1.98;;;;;;;;;;5033187;28;20654;-63
2022/01/12 09:31:28;;;;;;;3.47;1.60;;;;;;;;;;5045586;28;20436;-63
2022/01/12 09:33:54;;;;;;;3.60;1.65;;;;;;;;;;5042393;28;20263;-63
2022/01/12 09:36:20;;;;;;;3.28;1.63;;;;;;;;;;5036493;28;20053;-63
2022/01/12 09:38:46;;;;;;;4.35;2.10;;;;;;;;;;5033794;28;20032;-63
2022/01/12 09:41:12;;;;;;;5.70;2.35;;;;;;;;;;5038915;28;20029;-62
2022/01/12 09:43:40;;;;;;;3.60;2.05;;;;;;;;;;5033070;28;20051;-63
2022/01/12 09:46:07;;;;;;;3.97;2.17;;;;;;;;;;5030531;28;20026;-63
2022/01/12 09:48:34;;;;;;;3.35;2.05;;;;;;;;;;5036201;28;20032;-63
2022/01/12 09:51:03;;;;;;;4.15;2.30;;;;;;;;;;5035831;28;20045;-63
2022/01/12 09:53:29;;;;;;;5.32;2.75;;;;;;;;;;5033723;28;20473;-63
2022/01/12 09:55:55;;;;;;;3.92;1.83;;;;;;;;;;5033760;28;20048;-63
2022/01/12 09:58:21;;;;;;;5.20;2.70;;;;;;;;;;5034515;28;20022;-63
2022/01/12 10:00:57;;;;;;;5.05;2.45;;;;;;;;;;5047662;28;20033;-62
2022/01/12 10:03:25;;;;;;;3.35;2.17;;;;;;;;;;5035033;28;20029;-63
2022/01/12 10:05:51;;;;;;;4.25;1.95;;;;;;;;;;5033189;28;20022;-63
2022/01/12 10:08:17;;;;;;;4.30;2.28;;;;;;;;;;5038021;28;20446;-63
2022/01/12 10:10:49;;;;;;;3.85;2.00;;;;;;;;;;5034621;28;20091;-63
2022/01/12 10:13:25;;;;;;;5.15;2.03;;;;;;;;;;5029414;28;20473;-63
2022/01/12 10:15:54;;;;;;;3.45;1.60;;;;;;;;;;5028790;28;20554;-63
2022/01/12 10:18:22;;;;;;;4.80;1.75;;;;;;;;;;5030608;28;20026;-63
2022/01/12 10:20:49;;;;;;;3.33;2.00;;;;;;;;;;5029468;28;20022;-63
2022/01/12 10:23:15;;;;;;;3.88;1.90;;;;;;;;;;5030375;28;20021;-63
2022/01/12 10:25:46;;;;;;;3.22;1.67;;;;;;;;;;5030925;28;20021;-63
2022/01/12 10:28:16;;;;;;;3.88;2.10;;;;;;;;;;5027252;28;20379;-63
2022/01/12 10:30:52;;;;;;;4.47;2.10;;;;;;;;;;5041682;28;20044;-63
2022/01/12 10:33:18;;;;;;;4.57;2.28;;;;;;;;;;5033987;28;20017;-63
2022/01/12 10:35:44;;;;;;;4.15;2.13;;;;;;;;;;5030808;28;20053;-63
2022/01/12 10:38:11;;;;;;;6.55;3.15;;;;;;;;;;5031132;28;20313;-63
2022/01/12 10:40:56;;;;;;;6.65;2.58;;;;;;;;;;5035253;28;20036;-63
2022/01/12 10:43:34;;;;;;;5.25;2.47;;;;;;;;;;5013857;28;20022;-63
2022/01/12 10:46:01;;;;;;;4.72;2.38;;;;;;;;;;5030286;28;20044;-63
2022/01/12 10:48:53;;;;;;;5.30;1.98;;;;;;;;;;5044854;28;20043;-63
2022/01/12 10:51:22;;;;;;;5.07;2.35;;;;;;;;;;5035073;28;20143;-63
2022/01/12 10:53:50;;;;;;;4.80;2.22;;;;;;;;;;5041224;28;20032;-63
2022/01/12 10:56:17;;;;;;;6.97;2.27;;;;;;;;;;5039309;28;20029;-63
2022/01/12 10:58:44;;;;;;;3.08;1.63;;;;;;;;;;5029530;28;20049;-63
2022/01/12 11:01:11;;;;;;;4.20;1.83;;;;;;;;;;5028450;28;20037;-61
2022/01/12 11:03:37;;;;;;;4.78;2.13;;;;;;;;;;5030664;28;20410;-62
2022/01/12 11:06:04;;;;;;;4.20;2.13;;;;;;;;;;5021580;28;20083;-65
2022/01/12 11:08:30;;;;;;;4.55;2.10;;;;;;;;;;5026398;28;20105;-63
2022/01/12 11:10:57;;;;;;;6.72;2.55;;;;;;;;;;5025739;28;20046;-61
2022/01/12 11:13:24;;;;;;;3.97;2.13;;;;;;;;;;5027073;28;20048;-63
2022/01/12 11:15:51;;;;;;;5.15;2.05;;;;;;;;;;5034355;28;20017;-64
2022/01/12 11:18:17;;;;;;;4.80;2.20;;;;;;;;;;5025250;28;20577;-62
2022/01/12 11:20:45;;;;;;;4.53;1.92;;;;;;;;;;5026008;28;20220;-64
2022/01/12 11:23:15;;;;;;;4.57;1.97;;;;;;;;;;5031083;28;20037;-61
2022/01/12 11:25:48;;;;;;;4.22;2.13;;;;;;;;;;5015010;28;20029;-62
2022/01/12 11:28:17;;;;;;;4.18;1.77;;;;;;;;;;5028805;28;20017;-63
2022/01/12 11:30:45;;;;;;;4.20;1.98;;;;;;;;;;5032436;28;20044;-62
2022/01/12 11:33:11;;;;;;;3.97;1.95;;;;;;;;;;5030671;28;20071;-62
2022/01/12 11:35:45;;;;;;;6.65;2.40;;;;;;;;;;5032200;28;20022;-62
2022/01/12 11:38:24;;;;;;;4.43;2.03;;;;;;;;;;5031128;28;20523;-62
2022/01/12 11:40:52;;;;;;;4.88;2.13;;;;;;;;;;5033196;28;20025;-63
2022/01/12 11:43:18;;;;;;;4.40;2.17;;;;;;;;;;5031173;28;20418;-62
2022/01/12 11:45:44;;;;;;;3.58;1.95;;;;;;;;;;5032725;28;20121;-63
2022/01/12 11:48:10;;;;;;;5.22;1.98;;;;;;;;;;5032463;28;20037;-62
2022/01/12 11:50:36;;;;;;;4.50;2.40;;;;;;;;;;5032171;28;20041;-62
2022/01/12 11:53:02;;;;;;;5.78;2.47;;;;;;;;;;5029366;28;20041;-62
2022/01/12 11:55:37;;;;;;;3.72;2.20;;;;;;;;;;5031572;28;20025;-63
2022/01/12 11:58:04;;;;;;;3.40;2.05;;;;;;;;;;5032096;28;20447;-61
2022/01/12 12:00:31;;;;;;;5.13;2.20;;;;;;;;;;5034610;28;20521;-61
2022/01/12 12:02:57;;;;;;;4.45;2.35;;;;;;;;;;5030045;28;20128;-61
2022/01/12 12:05:26;;;;;;;4.38;2.33;;;;;;;;;;5031307;28;20108;-62
2022/01/12 12:07:54;;;;;;;5.00;2.53;;;;;;;;;;5030994;28;20033;-61
2022/01/12 12:10:27;;;;;;;5.40;2.37;;;;;;;;;;5032730;28;20033;-61
2022/01/12 12:12:53;;;;;;;4.22;2.25;;;;;;;;;;5031225;28;20271;-62
2022/01/12 12:15:20;;;;;;;4.93;2.13;;;;;;;;;;5031087;28;20017;-61
2022/01/12 12:17:46;;;;;;;5.45;2.63;;;;;;;;;;5029716;28;20539;-61
2022/01/12 12:20:17;;;;;;;7.95;2.10;;;;;;;;;;5032327;28;20032;-61
2022/01/12 12:22:44;;;;;;;4.80;2.20;;;;;;;;;;5028521;28;20061;-63
2022/01/12 12:25:16;;;;;;;3.75;1.98;;;;;;;;;;5029899;28;20044;-61
2022/01/12 12:27:43;;;;;;;4.40;2.15;;;;;;;;;;5031477;28;20104;-62
2022/01/12 12:30:12;;;;;;;5.47;2.45;;;;;;;;;;5031113;28;20033;-63
2022/01/12 12:32:43;;;;;;;4.45;2.10;;;;;;;;;;5030009;28;20513;-63
2022/01/12 12:35:17;;;;;;;4.00;1.92;;;;;;;;;;5029130;28;20030;-62
2022/01/12 12:37:47;;;;;;;4.75;2.05;;;;;;;;;;5028933;28;20095;-61
2022/01/12 12:40:13;;;;;;;3.67;1.98;;;;;;;;;;5030283;28;20022;-62
2022/01/12 12:42:39;;;;;;;3.92;1.80;;;;;;;;;;5031971;28;20084;-61
2022/01/12 12:45:07;;;;;;;4.72;2.13;;;;;;;;;;5030917;28;20469;-62
2022/01/12 12:47:33;;;;;;;2.95;1.55;;;;;;;;;;5030625;28;20472;-61
2022/01/12 12:50:02;;;;;;;3.42;1.40;;;;;;;;;;5031466;28;20086;-68
2022/01/12 12:52:27;;;;;;;;;;;;;;;;;;5033109;28;20128;-68
2022/01/12 12:54:54;;;;;;;3.78;1.60;;;;;;;;;;5028616;28;19920;-67
2022/01/12 12:57:23;;;;;;;2.20;1.33;;;;;;;;;;5032456;28;20472;-70
2022/01/12 12:59:51;;;;;;;2.67;1.45;;;;;;;;;;5029621;28;20480;-65
2022/01/12 13:02:17;;;;;;;4.70;1.52;;;;;;;;;;5027946;28;20112;-68
2022/01/12 13:04:43;;;;;;;4.13;1.70;;;;;;;;;;5027908;28;20029;-66
2022/01/12 13:07:17;;;;;;;3.72;1.80;;;;;;;;;;5026254;28;20040;-69
2022/01/12 13:09:44;;;;;;;4.43;2.20;;;;;;;;;;5029799;28;20030;-65
2022/01/12 13:12:10;;;;;;;6.32;2.25;;;;;;;;;;5028063;28;20033;-66
2022/01/12 13:14:43;;;;;;;3.83;1.83;;;;;;;;;;5026482;28;20072;-71
2022/01/12 13:17:09;;;;;;;3.30;1.90;;;;;;;;;;5023878;28;20030;-66
2022/01/12 13:22:23;;;;;;;4.28;2.00;;;;;;;;;;5029018;28;20517;-63
2022/01/12 13:24:49;;;;;;;6.60;2.53;;;;;;;;;;5012143;28;20029;-63
2022/01/12 13:27:15;;;;;;;3.85;2.05;;;;;;;;;;5025058;28;20083;-63
2022/01/12 13:29:48;;;;;;;4.18;2.15;;;;;;;;;;5023617;28;20033;-64
2022/01/12 13:32:14;;;;;;;4.00;2.20;;;;;;;;;;5028376;28;20037;-63
2022/01/12 13:34:43;;;;;;;4.97;2.00;;;;;;;;;;5031654;28;20036;-63
2022/01/12 13:37:09;;;;;;;;;;;;;;;;;;5029088;28;20038;-63
2022/01/12 13:39:35;;;;;;;5.75;1.92;;;;;;;;;;5031646;28;20322;-63
2022/01/12 13:42:01;;;;;;;4.20;2.38;;;;;;;;;;5028930;28;20037;-63
2022/01/12 13:44:27;;;;;;;6.88;2.38;;;;;;;;;;5028413;28;20163;-63
2022/01/12 13:49:30;;;;;;;5.07;2.30;;;;;;;;;;5031517;28;20136;-64
2022/01/12 13:52:07;;;;;;;5.97;2.60;;;;;;;;;;5039496;28;20120;-64
2022/01/12 13:54:37;;;;;;;5.53;2.30;;;;;;;;;;5034227;28;20037;-64
2022/01/12 13:57:04;;;;;;;8.02;2.50;;;;;;;;;;5032059;28;20029;-64
2022/01/12 13:59:32;;;;;;;5.05;2.42;;;;;;;;;;5036432;28;20468;-64
2022/01/12 14:01:58;;;;;;;7.43;2.78;;;;;;;;;;5041417;28;20017;-64
2022/01/12 14:04:28;;;;;;;7.47;2.90;;;;;;;;;;5029812;28;20022;-63
2022/01/12 14:07:00;;;;;;;4.32;2.38;;;;;;;;;;5032721;28;20021;-63
2022/01/12 14:09:30;;;;;;;4.78;2.42;;;;;;;;;;5036890;28;20118;-63
2022/01/12 14:11:57;;;;;;;5.32;2.38;;;;;;;;;;5042694;28;20040;-63
2022/01/12 14:14:23;;;;;;;5.82;2.97;;;;;;;;;;5038910;28;20027;-63
2022/01/12 14:16:50;;;;;;;7.72;2.90;;;;;;;;;;5033278;28;20036;-63
2022/01/12 14:19:16;;;;;;;6.88;2.83;;;;;;;;;;5029772;28;20028;-63
2022/01/12 14:21:53;;;;;;;6.47;2.70;;;;;;;;;;5034625;28;20064;-63
2022/01/12 14:24:20;;;;;;;5.28;2.95;;;;;;;;;;5035763;28;20027;-63
2022/01/12 14:26:46;;;;;;;8.57;3.30;;;;;;;;;;5032069;28;20068;-64
2022/01/12 14:29:12;;;;;;;8.82;3.97;;;;;;;;;;5038326;28;20032;-63
2022/01/12 14:31:39;;;;;;;6.07;2.88;;;;;;;;;;5043368;28;20064;-63
2022/01/12 14:34:05;;;;;;;8.10;2.95;;;;;;;;;;5028589;28;20026;-63
2022/01/12 14:36:31;;;;;;;5.75;3.03;;;;;;;;;;5040405;28;20094;-63
2022/01/12 14:38:57;;;;;;;7.95;3.92;;;;;;;;;;5034732;28;20480;-63
2022/01/12 14:41:24;;;;;;;5.70;3.25;;;;;;;;;;5033193;28;20030;-63
2022/01/12 14:43:53;;;;;;;6.68;2.83;;;;;;;;;;5030096;28;20049;-63
2022/01/12 14:46:20;;;;;;;5.97;3.15;;;;;;;;;;5043507;28;20448;-63
2022/01/12 14:48:47;;;;;;;8.25;3.40;;;;;;;;;;5042066;28;20129;-63
2022/01/12 14:51:13;;;;;;;6.00;3.22;;;;;;;;;;5040782;28;20143;-63
2022/01/12 14:53:39;;;;;;;7.35;3.40;;;;;;;;;;5036273;28;20064;-63
2022/01/12 14:56:06;;;;;;;7.97;3.60;;;;;;;;;;5031369;28;20041;-64
2022/01/12 14:58:32;;;;;;;6.38;3.47;;;;;;;;;;5033881;28;20462;-63
2022/01/12 15:00:59;;;;;;;7.20;3.55;;;;;;;;;;5042793;28;20476;-63
2022/01/12 15:03:26;;;;;;;9.18;4.13;;;;;;;;;;5042987;28;20121;-66
2022/01/12 15:05:53;;;;;;;10.18;3.78;;;;;;;;;;5017297;28;20485;-64
2022/01/12 15:08:20;;;;;;;8.48;3.60;;;;;;;;;;5016394;28;20030;-64
2022/01/12 15:10:47;;;;;;;8.82;3.90;;;;;;;;;;5021257;28;20051;-65
2022/01/12 15:13:26;;;;;;;8.27;4.18;;;;;;;;;;5012191;28;20502;-68
2022/01/12 15:15:53;;;;;;;7.30;3.42;;;;;;;;;;5027129;28;20053;-62
2022/01/12 15:18:21;;;;;;;7.00;3.80;;;;;;;;;;5036522;28;20028;-62
2022/01/12 15:20:48;;;;;;;8.65;4.63;;;;;;;;;;5024583;28;20033;-62
2022/01/12 15:23:14;;;;;;;10.40;5.00;;;;;;;;;;5015227;28;20104;-61
2022/01/12 15:25:40;;;;;;;9.23;4.57;;;;;;;;;;5019615;28;20033;-62
2022/01/12 15:28:07;;;;;;;12.77;4.60;;;;;;;;;;5027763;28;20105;-61
2022/01/12 15:30:34;;;;;;;11.57;5.57;;;;;;;;;;5044172;28;20491;-61
2022/01/12 15:33:00;;;;;;;11.65;5.00;;;;;;;;;;5027234;28;20078;-62
2022/01/12 15:35:26;;;;;;;8.63;4.40;;;;;;;;;;5032671;28;20025;-62
2022/01/12 15:37:52;;;;;;;14.55;6.80;;;;;;;;;;5036083;28;20049;-64
2022/01/12 15:40:18;;;;;;;15.48;8.07;;;;;;;;;;5031888;28;20034;-63
2022/01/12 15:42:44;;;;;;;13.10;7.47;;;;;;;;;;5028972;28;20424;-63
2022/01/12 15:45:10;;;;;;;8.63;4.68;;;;;;;;;;5030081;28;20045;-64
2022/01/12 15:47:36;;;;;;;13.52;7.65;;;;;;;;;;5024164;28;20033;-68
2022/01/12 15:50:04;;;;;;;13.80;7.20;;;;;;;;;;5025531;28;20034;-64
2022/01/12 15:52:30;;;;;;;12.73;6.25;;;;;;;;;;5013337;28;20034;-64
2022/01/12 15:54:56;;;;;;;9.00;5.28;;;;;;;;;;5029384;28;20248;-64
2022/01/12 15:57:22;;;;;;;7.72;4.25;;;;;;;;;;5024376;28;20061;-63
2022/01/12 15:59:49;;;;;;;10.63;5.25;;;;;;;;;;5033875;28;20457;-63
2022/01/12 16:02:15;;;;;;;35.28;16.92;;;;;;;;;;5029747;28;20034;-64
2022/01/12 16:04:41;;;;;;;17.40;8.90;;;;;;;;;;5015393;28;20032;-63
2022/01/12 16:07:08;;;;;;;21.45;9.05;;;;;;;;;;5037170;28;20030;-64
2022/01/12 16:09:34;;;;;;;15.60;7.70;;;;;;;;;;5023307;28;20108;-64